Time;durP1;ratioP1;P1;durP2;ratioP2;P2;SDS_P1;SDS_P2;PMS_P1;PMS_P2;Temp;Humidity;BMP_temperature;BMP_pressure;BME280_temperature;BME280_humidity;BME280_pressure;Samples;Min_cycle;Max_cycle;Signal;HPM_P1;HPM_P2
2021/06/04 00:11:44;;;;;;;9.07;5.60;;;20.00;90.80;;;;;;4914112;29;20464;-91
2021/06/04 00:14:56;;;;;;;6.10;5.57;;;20.00;91.00;;;;;;4899250;29;20504;-91
2021/06/04 00:17:38;;;;;;;7.10;6.00;;;20.00;91.40;;;;;;4858446;29;20442;-92
2021/06/04 00:20:12;;;;;;;9.93;6.23;;;19.90;91.50;;;;;;4880525;29;20493;-92
2021/06/04 00:22:37;;;;;;;7.90;5.93;;;19.90;91.50;;;;;;4903894;23;20546;-94
2021/06/04 00:25:07;;;;;;;6.60;4.63;;;19.90;91.70;;;;;;4918764;29;20459;-91
2021/06/04 00:27:36;;;;;;;8.83;5.27;;;19.90;91.80;;;;;;4920613;29;20175;-91
2021/06/04 00:30:06;;;;;;;7.70;5.37;;;19.80;91.70;;;;;;4937916;29;20479;-92
2021/06/04 00:32:35;;;;;;;8.20;5.60;;;19.80;91.80;;;;;;4920377;29;20451;-92
2021/06/04 00:38:18;;;;;;;7.93;5.80;;;19.80;90.90;;;;;;4922977;29;20424;-92
2021/06/04 00:44:05;;;;;;;10.97;6.57;;;19.70;91.10;;;;;;4911900;29;20445;-93
2021/06/04 00:47:14;;;;;;;10.73;5.60;;;19.70;90.90;;;;;;4915753;29;20793;-91
2021/06/04 00:49:46;;;;;;;6.90;5.40;;;19.70;90.80;;;;;;4903425;29;20433;-91
2021/06/04 00:52:45;;;;;;;8.20;5.60;;;19.70;90.90;;;;;;4918445;29;20458;-91
2021/06/04 00:55:27;;;;;;;9.67;5.37;;;19.70;91.10;;;;;;4910828;29;20483;-91
2021/06/04 00:57:56;;;;;;;11.93;5.50;;;19.60;90.70;;;;;;4918379;29;20474;-91
2021/06/04 01:00:48;;;;;;;8.27;5.60;;;19.60;90.70;;;;;;4918288;29;20419;-91
2021/06/04 01:06:36;;;;;;;6.70;5.33;;;19.60;91.10;;;;;;4928293;29;20416;-90
2021/06/04 01:09:41;;;;;;;6.93;5.70;;;19.50;91.20;;;;;;4917983;29;20420;-90
2021/06/04 01:12:29;;;;;;;10.33;6.23;;;19.50;91.20;;;;;;4918956;29;20448;-91
2021/06/04 01:15:18;;;;;;;7.93;6.13;;;19.50;91.10;;;;;;4903715;29;20798;-91
2021/06/04 01:18:06;;;;;;;5.57;5.00;;;19.50;90.40;;;;;;4903726;29;20507;-90
2021/06/04 01:20:36;;;;;;;8.43;6.00;;;19.50;90.60;;;;;;4903637;29;20419;-91
2021/06/04 01:23:33;;;;;;;6.90;4.90;;;19.50;90.50;;;;;;4914012;29;20471;-91
2021/06/04 01:26:23;;;;;;;8.63;5.30;;;19.50;90.70;;;;;;4922810;29;20424;-91
2021/06/04 01:28:52;;;;;;;6.80;5.90;;;19.50;90.90;;;;;;4922789;29;20482;-91
2021/06/04 01:31:27;;;;;;;6.77;5.10;;;19.50;91.00;;;;;;4914955;29;20780;-90
2021/06/04 01:34:06;;;;;;;7.80;6.13;;;19.50;90.90;;;;;;4905504;29;20443;-90
2021/06/04 01:36:38;;;;;;;15.83;5.97;;;19.50;90.80;;;;;;4904692;29;20448;-91
2021/06/04 01:39:13;;;;;;;10.17;5.37;;;19.40;91.00;;;;;;4904544;29;20417;-90
2021/06/04 01:41:41;;;;;;;12.37;6.23;;;19.40;90.70;;;;;;4903249;29;20475;-93
2021/06/04 01:44:15;;;;;;;8.37;5.40;;;19.40;91.10;;;;;;4902914;29;20427;-89
2021/06/04 01:46:45;;;;;;;8.80;5.77;;;19.40;91.20;;;;;;4901534;29;20417;-91
2021/06/04 01:49:18;;;;;;;8.13;5.63;;;19.40;91.20;;;;;;4900400;29;20487;-91
2021/06/04 01:52:09;;;;;;;5.50;5.17;;;19.40;91.50;;;;;;4901391;29;20432;-91
2021/06/04 01:54:54;;;;;;;9.43;5.80;;;19.40;91.80;;;;;;4900936;29;20421;-91
2021/06/04 01:57:31;;;;;;;9.90;5.90;;;19.30;91.60;;;;;;4900916;29;20412;-91
2021/06/04 01:59:56;;;;;;;6.73;5.70;;;19.30;91.70;;;;;;4911659;29;20450;-91
2021/06/04 02:02:26;;;;;;;7.53;5.77;;;19.30;91.80;;;;;;4919349;29;20475;-91
2021/06/04 02:04:54;;;;;;;6.80;5.87;;;19.30;91.80;;;;;;4918998;29;20577;-91
2021/06/04 02:07:25;;;;;;;6.70;5.37;;;19.30;91.60;;;;;;4919385;29;20432;-91
2021/06/04 02:09:53;;;;;;;9.73;5.30;;;19.30;91.60;;;;;;4918639;29;20539;-91
2021/06/04 02:12:19;;;;;;;6.03;5.33;;;19.30;91.70;;;;;;4919854;29;20447;-87
2021/06/04 02:14:53;;;;;;;10.00;5.30;;;19.30;91.90;;;;;;4920153;29;20423;-90
2021/06/04 02:17:33;;;;;;;7.10;5.00;;;19.20;91.70;;;;;;4920048;29;20239;-91
2021/06/04 02:20:25;;;;;;;9.10;6.13;;;19.20;91.90;;;;;;4919772;29;20447;-91
2021/06/04 02:23:12;;;;;;;9.70;5.70;;;19.20;92.10;;;;;;4936716;29;20471;-91
2021/06/04 02:25:56;;;;;;;6.40;5.93;;;19.10;92.00;;;;;;4921306;29;20431;-91
2021/06/04 02:28:37;;;;;;;9.47;6.40;;;19.10;92.20;;;;;;4921815;29;20471;-91
2021/06/04 02:31:13;;;;;;;10.27;6.23;;;19.10;92.40;;;;;;4922528;29;20993;-91
2021/06/04 02:33:47;;;;;;;7.93;6.23;;;19.10;92.60;;;;;;4922263;29;20790;-92
2021/06/04 02:36:25;;;;;;;13.27;6.03;;;19.10;92.80;;;;;;4922969;29;20426;-91
2021/06/04 02:38:56;;;;;;;7.40;5.40;;;19.10;92.90;;;;;;4922666;29;21166;-92
2021/06/04 02:41:35;;;;;;;6.87;5.40;;;19.00;93.30;;;;;;4922586;29;20787;-90
2021/06/04 02:44:09;;;;;;;6.93;5.50;;;19.00;93.30;;;;;;4922341;29;20847;-91
2021/06/04 02:46:44;;;;;;;8.60;6.47;;;19.00;93.70;;;;;;4914370;29;20467;-91
2021/06/04 02:49:13;;;;;;;7.50;5.50;;;19.00;93.30;;;;;;4907232;29;20478;-90
2021/06/04 02:52:08;;;;;;;6.70;5.83;;;19.00;93.30;;;;;;4920527;29;20802;-90
2021/06/04 02:54:38;;;;;;;10.47;6.27;;;19.00;93.20;;;;;;4920367;29;20426;-91
2021/06/04 02:57:11;;;;;;;9.23;6.20;;;19.00;93.20;;;;;;4920183;29;20507;-91
2021/06/04 02:59:42;;;;;;;6.20;5.77;;;19.00;93.50;;;;;;4920407;29;20430;-91
2021/06/04 03:02:14;;;;;;;12.40;6.60;;;19.00;93.80;;;;;;4919783;29;21216;-90
2021/06/04 03:04:45;;;;;;;9.13;6.23;;;18.90;93.70;;;;;;4920068;29;20802;-91
2021/06/04 03:07:40;;;;;;;7.57;6.03;;;18.90;94.20;;;;;;4920450;29;20420;-91
2021/06/04 03:10:20;;;;;;;8.53;6.07;;;18.90;95.00;;;;;;4921146;29;20995;-91
2021/06/04 03:12:52;;;;;;;7.97;6.07;;;18.90;95.20;;;;;;4920400;29;20531;-91
2021/06/04 03:16:08;;;;;;;;;;;;;;;;;;;;;
2021/06/04 03:34:44;;;;;;;15.77;7.30;;;18.70;96.90;;;;;;4879288;29;20487;-92
2021/06/04 03:37:24;;;;;;;9.40;6.30;;;18.60;96.90;;;;;;4855329;29;20426;-92
2021/06/04 03:40:07;;;;;;;9.30;6.07;;;18.60;96.90;;;;;;4864353;29;20482;-93
2021/06/04 03:42:37;;;;;;;8.97;7.07;;;18.50;97.30;;;;;;4864617;29;20474;-93
2021/06/04 03:45:18;;;;;;;10.67;7.00;;;18.50;97.10;;;;;;4862758;29;20427;-92
2021/06/04 03:47:43;;;;;;;10.87;5.67;;;18.50;97.10;;;;;;4918214;23;20503;-91
2021/06/04 03:50:12;;;;;;;10.77;7.33;;;18.50;97.30;;;;;;4919152;29;20428;-91
2021/06/04 03:52:37;;;;;;;12.97;6.97;;;18.50;97.20;;;;;;4919949;29;20259;-91
2021/06/04 04:07:57;;;;;;;11.20;7.15;;;18.30;96.90;;;;;;6021839;23;20445;31
2021/06/04 04:43:25;;;;;;;9.17;6.87;;;18.30;96.90;;;;;;4904012;29;20517;-92
2021/06/04 04:45:51;;;;;;;9.70;7.10;;;18.20;97.10;;;;;;4895343;29;20434;-93
2021/06/04 04:48:16;;;;;;;11.37;7.80;;;18.30;97.30;;;;;;4894784;29;20500;-93
2021/06/04 04:50:44;;;;;;;11.77;7.20;;;18.20;97.30;;;;;;4886620;29;20418;-93
2021/06/04 04:53:18;;;;;;;10.63;7.10;;;18.30;97.30;;;;;;4873903;29;20241;-91
2021/06/04 04:55:46;;;;;;;10.63;6.90;;;18.30;97.30;;;;;;4872665;29;20450;-91
2021/06/04 04:58:14;;;;;;;7.13;6.70;;;18.30;97.30;;;;;;4872172;29;20446;-90
2021/06/04 05:00:48;;;;;;;10.57;6.97;;;18.30;97.30;;;;;;4870712;29;20422;-90
2021/06/04 05:03:20;;;;;;;13.43;7.20;;;18.30;97.30;;;;;;4873065;29;20469;-92
2021/06/04 05:05:46;;;;;;;10.60;7.13;;;18.30;97.30;;;;;;4872870;29;20425;-90
2021/06/04 05:08:15;;;;;;;10.53;7.27;;;18.40;97.30;;;;;;4888988;29;20477;-90
2021/06/04 05:10:40;;;;;;;10.63;7.33;;;18.40;97.30;;;;;;4890553;29;20489;-90
2021/06/04 05:19:43;;;;;;;13.80;7.20;;;18.50;97.30;;;;;;4947324;23;21047;-81
2021/06/04 05:22:09;;;;;;;12.27;7.90;;;18.50;97.30;;;;;;4928374;29;21032;-82
2021/06/04 05:24:35;;;;;;;13.30;6.43;;;18.60;97.30;;;;;;4926863;29;20414;-82
2021/06/04 05:27:00;;;;;;;10.67;7.17;;;18.60;97.30;;;;;;4929346;29;20422;-81
2021/06/04 05:29:26;;;;;;;10.50;7.20;;;18.60;97.30;;;;;;4928967;29;20190;-82
2021/06/04 05:31:51;;;;;;;10.20;7.37;;;18.70;97.30;;;;;;4927955;29;20207;-82
2021/06/04 05:34:17;;;;;;;10.80;7.10;;;18.70;97.30;;;;;;4927488;29;20196;-82
2021/06/04 05:36:43;;;;;;;12.13;7.00;;;18.70;97.30;;;;;;4911167;29;20192;-81
2021/06/04 05:39:15;;;;;;;9.70;7.40;;;18.70;97.30;;;;;;4909433;29;20188;-81
2021/06/04 05:41:45;;;;;;;9.90;7.00;;;18.70;97.30;;;;;;4907144;29;20577;-82
2021/06/04 05:44:14;;;;;;;11.20;6.97;;;18.70;97.30;;;;;;4908004;29;20483;-81
2021/06/04 05:46:45;;;;;;;8.40;6.80;;;18.70;97.30;;;;;;4909068;29;20805;-82
2021/06/04 05:49:10;;;;;;;9.40;7.67;;;18.70;97.30;;;;;;4909104;29;20413;-82
2021/06/04 05:51:37;;;;;;;9.83;6.60;;;18.70;97.30;;;;;;4918817;29;21106;-82
2021/06/04 05:54:03;;;;;;;11.63;7.47;;;18.70;97.30;;;;;;4945554;29;20175;-82
2021/06/04 05:56:29;;;;;;;10.60;7.53;;;18.80;97.30;;;;;;4934990;29;20425;-82
2021/06/04 05:58:55;;;;;;;9.40;6.97;;;18.80;97.30;;;;;;4905080;29;20420;-82
2021/06/04 06:01:28;;;;;;;10.83;7.63;;;18.80;97.30;;;;;;4904622;29;20228;-82
2021/06/04 06:03:54;;;;;;;9.63;7.70;;;18.80;97.30;;;;;;4912216;29;20431;-81
2021/06/04 06:06:20;;;;;;;19.43;7.10;;;18.80;97.30;;;;;;4920275;29;20425;-81
2021/06/04 06:08:47;;;;;;;11.10;7.20;;;18.90;97.30;;;;;;4922808;29;20420;-81
2021/06/04 06:11:16;;;;;;;9.20;6.50;;;18.90;97.30;;;;;;4906647;29;20931;-81
2021/06/04 06:13:42;;;;;;;16.27;7.27;;;18.90;97.30;;;;;;4906338;29;20445;-81
2021/06/04 06:16:09;;;;;;;11.40;6.50;;;18.90;97.30;;;;;;4909017;29;20435;-82
2021/06/04 06:18:35;;;;;;;9.53;6.73;;;18.90;97.30;;;;;;4924600;29;21085;-81
2021/06/04 06:21:01;;;;;;;11.87;7.43;;;18.90;97.30;;;;;;4925179;29;20462;-81
2021/06/04 06:23:34;;;;;;;12.37;6.57;;;19.00;97.30;;;;;;4924373;29;20463;-81
2021/06/04 06:26:06;;;;;;;10.30;7.17;;;19.00;97.30;;;;;;4920642;29;20942;-81
2021/06/04 06:28:35;;;;;;;12.20;7.53;;;19.00;97.30;;;;;;4912313;29;20444;-81
2021/06/04 06:31:05;;;;;;;11.20;7.10;;;19.00;97.30;;;;;;4925588;29;20450;-81
2021/06/04 06:33:31;;;;;;;12.23;7.00;;;19.00;97.30;;;;;;4925192;29;20432;-80
2021/06/04 06:36:04;;;;;;;11.10;7.30;;;19.00;97.30;;;;;;4924758;29;20459;-81
2021/06/04 06:38:30;;;;;;;13.07;7.27;;;19.00;97.30;;;;;;4924358;29;20191;-81
2021/06/04 06:40:58;;;;;;;13.70;7.57;;;19.10;97.30;;;;;;4925515;29;20443;-80
2021/06/04 06:43:32;;;;;;;14.73;6.73;;;19.10;97.30;;;;;;4940564;29;20471;-81
2021/06/04 06:45:59;;;;;;;9.53;7.53;;;19.10;97.30;;;;;;4920492;29;20416;-81
2021/06/04 06:48:25;;;;;;;13.60;7.50;;;19.10;97.30;;;;;;4915642;29;20456;-81
2021/06/04 06:50:51;;;;;;;10.20;7.63;;;19.10;97.30;;;;;;4901675;29;20441;-81
2021/06/04 06:53:18;;;;;;;11.57;8.40;;;19.10;97.30;;;;;;4901630;29;20496;-81
2021/06/04 06:55:45;;;;;;;11.50;7.67;;;19.20;97.30;;;;;;4902035;29;20449;-80
2021/06/04 06:58:12;;;;;;;11.13;7.90;;;19.10;97.30;;;;;;4905478;29;20484;-80
2021/06/04 07:00:42;;;;;;;18.77;8.17;;;19.20;97.30;;;;;;4939173;29;20545;-80
2021/06/04 07:03:10;;;;;;;13.27;8.00;;;19.20;97.30;;;;;;4922442;29;20471;-80
2021/06/04 07:05:36;;;;;;;10.97;7.70;;;19.20;97.30;;;;;;4919708;29;20459;-79
2021/06/04 07:08:03;;;;;;;15.37;8.60;;;19.20;97.30;;;;;;4921814;29;20416;-80
2021/06/04 07:10:30;;;;;;;13.93;7.90;;;19.30;97.30;;;;;;4922883;29;20431;-80
2021/06/04 07:12:57;;;;;;;9.83;6.93;;;19.30;97.30;;;;;;4940483;29;20412;-80
2021/06/04 07:15:24;;;;;;;9.00;7.27;;;19.30;97.30;;;;;;4940099;29;20579;-80
2021/06/04 07:17:53;;;;;;;9.73;6.80;;;19.30;97.30;;;;;;4923510;29;20464;-80
2021/06/04 07:20:20;;;;;;;8.73;7.50;;;19.40;97.30;;;;;;4922678;29;20428;-80
2021/06/04 07:22:46;;;;;;;11.40;7.37;;;19.40;97.30;;;;;;4923287;29;20482;-80
2021/06/04 07:25:15;;;;;;;11.53;6.90;;;19.50;97.30;;;;;;4923230;29;20931;-80
2021/06/04 07:27:46;;;;;;;10.97;7.83;;;19.50;97.30;;;;;;4904620;29;20181;-80
2021/06/04 07:30:21;;;;;;;12.53;7.07;;;19.60;97.30;;;;;;4904190;29;20461;-80
2021/06/04 07:32:47;;;;;;;8.47;6.60;;;19.60;97.30;;;;;;4904602;29;20962;-81
2021/06/04 07:35:16;;;;;;;10.80;6.93;;;19.60;97.30;;;;;;4923150;29;20519;-80
2021/06/04 07:37:42;;;;;;;14.40;7.30;;;19.70;97.30;;;;;;4911682;29;20856;-80
2021/06/04 07:40:11;;;;;;;10.73;7.20;;;19.80;97.30;;;;;;4922719;29;20855;-80
2021/06/04 07:42:36;;;;;;;14.13;7.40;;;19.80;97.30;;;;;;4922618;29;21101;-80
2021/06/04 07:45:03;;;;;;;10.63;7.70;;;19.80;97.30;;;;;;4923524;29;20420;-80
2021/06/04 07:47:29;;;;;;;10.10;6.47;;;19.90;97.30;;;;;;4921945;29;20176;-80
2021/06/04 07:49:54;;;;;;;21.00;8.50;;;20.00;97.30;;;;;;4910541;29;20829;-80
2021/06/04 07:52:20;;;;;;;12.63;7.20;;;20.00;97.30;;;;;;4923051;29;20223;-80
2021/06/04 07:54:45;;;;;;;12.30;6.03;;;20.10;97.30;;;;;;4922595;29;20644;-80
2021/06/04 07:57:11;;;;;;;12.83;6.87;;;20.10;97.30;;;;;;4919464;29;20644;-80
2021/06/04 07:59:36;;;;;;;11.90;7.20;;;20.20;97.30;;;;;;4937773;29;20267;-80
2021/06/04 08:02:03;;;;;;;10.80;6.60;;;20.20;97.30;;;;;;4921390;29;20208;-80
2021/06/04 08:04:28;;;;;;;10.13;6.70;;;20.20;97.30;;;;;;4921401;29;20180;-80
2021/06/04 08:06:54;;;;;;;19.17;8.20;;;20.30;97.30;;;;;;4921029;29;20971;-80
2021/06/04 08:09:20;;;;;;;10.50;5.77;;;20.40;97.30;;;;;;4921467;29;20264;-79
2021/06/04 08:11:49;;;;;;;11.20;6.10;;;20.40;97.30;;;;;;4916095;29;20558;-80
2021/06/04 08:14:18;;;;;;;11.30;6.57;;;20.50;97.30;;;;;;4917990;29;20648;-80
2021/06/04 08:16:46;;;;;;;13.03;6.50;;;20.50;97.30;;;;;;4913512;29;20503;-79
2021/06/04 08:19:18;;;;;;;12.60;6.20;;;20.60;97.30;;;;;;4920796;29;20510;-79
2021/06/04 08:21:49;;;;;;;8.00;6.10;;;20.60;97.10;;;;;;4919463;29;20479;-79
2021/06/04 08:24:19;;;;;;;12.10;5.93;;;20.70;97.30;;;;;;4917477;29;20486;-79
2021/06/04 08:26:46;;;;;;;11.33;6.00;;;20.70;97.10;;;;;;4903347;29;20432;-80
2021/06/04 08:29:12;;;;;;;11.97;6.60;;;20.80;97.30;;;;;;4919603;29;20465;-80
2021/06/04 08:31:38;;;;;;;9.30;6.37;;;20.90;97.30;;;;;;4908222;29;20870;-80
2021/06/04 08:34:05;;;;;;;12.50;6.37;;;20.90;97.00;;;;;;4906748;29;20440;-80
2021/06/04 08:36:34;;;;;;;11.17;5.60;;;21.00;96.80;;;;;;4921374;29;20424;-80
2021/06/04 08:39:03;;;;;;;7.50;6.10;;;21.00;96.00;;;;;;4911727;29;20420;-78
2021/06/04 08:41:39;;;;;;;8.37;6.23;;;21.10;96.50;;;;;;4916609;29;20568;-80
2021/06/04 08:44:29;;;;;;;9.33;5.93;;;21.20;94.40;;;;;;4915103;29;20483;-81
2021/06/04 08:47:01;;;;;;;21.93;6.40;;;21.30;94.50;;;;;;4910408;29;20801;-79
2021/06/04 08:50:06;;;;;;;9.50;5.70;;;21.40;94.70;;;;;;4902815;29;20417;-79
2021/06/04 08:52:42;;;;;;;7.30;5.60;;;21.60;94.20;;;;;;4897013;29;20448;-80
2021/06/04 08:55:42;;;;;;;9.57;5.90;;;21.70;94.30;;;;;;4903839;29;20423;-80
2021/06/04 08:58:38;;;;;;;14.37;5.20;;;22.00;94.20;;;;;;4902868;29;20456;-81
2021/06/04 09:01:31;;;;;;;9.17;6.30;;;22.10;92.10;;;;;;4903043;29;20452;-80
2021/06/04 09:04:02;;;;;;;9.63;5.60;;;22.30;92.40;;;;;;4892919;29;20511;-80
2021/06/04 09:06:36;;;;;;;9.70;5.60;;;22.40;91.40;;;;;;4921906;29;20423;-81
2021/06/04 09:09:14;;;;;;;11.93;6.00;;;22.60;90.50;;;;;;4922012;29;20509;-80
2021/06/04 09:11:40;;;;;;;8.93;6.00;;;22.70;89.50;;;;;;4922674;29;20459;-79
2021/06/04 09:14:07;;;;;;;9.00;6.20;;;22.80;90.40;;;;;;4923003;29;20420;-80
2021/06/04 09:17:03;;;;;;;12.47;6.50;;;22.80;90.00;;;;;;4921997;29;20436;-80
2021/06/04 09:20:14;;;;;;;11.20;5.73;;;22.90;89.50;;;;;;4921409;29;20518;-80
2021/06/04 09:22:44;;;;;;;10.27;6.10;;;23.00;88.90;;;;;;4916461;29;20855;-79
2021/06/04 09:25:14;;;;;;;7.50;5.60;;;23.00;88.90;;;;;;4921484;29;20419;-80
2021/06/04 09:27:43;;;;;;;11.90;5.43;;;23.10;88.90;;;;;;4921631;29;20420;-80
2021/06/04 09:30:35;;;;;;;7.10;5.70;;;23.10;88.60;;;;;;4921781;29;20419;-80
2021/06/04 09:33:20;;;;;;;10.80;6.27;;;23.20;87.70;;;;;;4923177;29;20431;-80
2021/06/04 09:36:10;;;;;;;12.10;6.20;;;23.20;86.80;;;;;;4922719;29;20486;-79
2021/06/04 09:38:39;;;;;;;7.17;5.43;;;23.30;87.80;;;;;;4922678;29;20431;-80
2021/06/04 09:41:19;;;;;;;9.27;5.83;;;23.40;87.80;;;;;;4921287;29;20458;-79
2021/06/04 09:43:48;;;;;;;10.70;5.57;;;23.50;88.10;;;;;;4920590;29;20471;-79
2021/06/04 09:46:33;;;;;;;12.67;6.27;;;23.60;88.20;;;;;;4920836;29;20808;-79
2021/06/04 09:49:01;;;;;;;7.47;5.97;;;23.80;87.60;;;;;;4920096;29;20431;-79
2021/06/04 09:51:37;;;;;;;11.60;6.00;;;23.90;85.20;;;;;;4919501;29;20539;-80
2021/06/04 09:54:42;;;;;;;5.53;5.27;;;23.90;86.90;;;;;;4936863;29;20429;-78
2021/06/04 09:57:12;;;;;;;9.53;6.10;;;24.10;86.90;;;;;;4825625;29;20959;-80
2021/06/04 09:59:39;;;;;;;9.57;5.60;;;24.10;86.90;;;;;;4825377;29;20428;-79
2021/06/04 10:02:24;;;;;;;8.37;6.47;;;24.20;87.30;;;;;;4872749;29;20554;-79
2021/06/04 10:04:50;;;;;;;9.63;6.57;;;24.30;85.20;;;;;;4936811;29;20518;-79
2021/06/04 10:07:20;;;;;;;9.53;6.10;;;24.40;87.30;;;;;;4936642;29;20447;-80
2021/06/04 10:09:46;;;;;;;12.23;6.70;;;24.50;85.70;;;;;;4919649;29;20179;-79
2021/06/04 10:12:34;;;;;;;11.30;6.00;;;24.50;85.80;;;;;;4919224;29;20440;-79
2021/06/04 10:15:20;;;;;;;11.60;5.93;;;24.70;85.90;;;;;;4918976;29;20423;-79
2021/06/04 10:20:43;;;;;;;10.33;6.40;;;25.10;85.40;;;;;;4936546;29;20597;-78
2021/06/04 10:23:22;;;;;;;8.73;6.40;;;25.20;85.00;;;;;;4918659;29;20463;-78
2021/06/04 10:25:58;;;;;;;10.70;6.13;;;25.20;85.20;;;;;;4918949;29;20431;-79
2021/06/04 10:28:58;;;;;;;12.40;6.60;;;25.30;85.20;;;;;;4918614;29;20462;-80
2021/06/04 10:31:55;;;;;;;7.63;5.47;;;25.30;85.80;;;;;;4902680;29;20447;-79
2021/06/04 10:34:45;;;;;;;11.43;6.30;;;25.30;86.10;;;;;;4918928;29;20523;-79
2021/06/04 10:37:29;;;;;;;8.63;6.50;;;25.30;85.10;;;;;;4935573;29;20415;-78
2021/06/04 10:40:26;;;;;;;9.40;6.37;;;25.40;85.70;;;;;;4919217;29;20420;-78
2021/06/04 10:43:20;;;;;;;10.70;7.00;;;25.60;85.80;;;;;;4882469;29;20499;-78
2021/06/04 10:45:52;;;;;;;8.63;6.10;;;25.80;85.80;;;;;;4909837;29;20427;-78
2021/06/04 10:48:44;;;;;;;12.93;6.70;;;26.00;84.20;;;;;;4918873;29;20427;-78
2021/06/04 10:51:15;;;;;;;11.33;6.40;;;26.10;83.80;;;;;;4918804;29;20443;-78
2021/06/04 10:54:17;;;;;;;6.30;5.97;;;26.20;85.00;;;;;;4918692;29;20562;-78
2021/06/04 10:57:04;;;;;;;8.20;6.27;;;26.30;84.90;;;;;;4918182;29;20419;-78
2021/06/04 10:59:35;;;;;;;15.10;7.03;;;26.20;84.10;;;;;;4917972;29;20424;-79
2021/06/04 11:02:16;;;;;;;13.10;6.00;;;26.30;84.40;;;;;;4917685;29;20685;-78
2021/06/04 11:05:12;;;;;;;9.77;7.37;;;26.40;85.10;;;;;;4917900;29;20427;-78
2021/06/04 11:08:00;;;;;;;8.63;6.50;;;26.60;82.80;;;;;;4917731;29;20871;-78
2021/06/04 11:11:05;;;;;;;9.77;6.50;;;26.70;84.20;;;;;;4917987;29;20459;-78
2021/06/04 11:13:43;;;;;;;16.00;6.73;;;26.80;84.20;;;;;;4917120;29;20455;-77
2021/06/04 11:16:25;;;;;;;10.83;7.07;;;26.90;84.20;;;;;;4917879;29;20479;-78
2021/06/04 11:18:59;;;;;;;13.37;6.60;;;26.90;83.80;;;;;;4916000;29;21003;-77
2021/06/04 11:21:38;;;;;;;12.17;6.20;;;27.00;84.10;;;;;;4907591;29;20547;-79
2021/06/04 11:24:25;;;;;;;10.47;6.80;;;27.10;83.60;;;;;;4898611;29;20420;-77
2021/06/04 11:26:53;;;;;;;12.70;7.10;;;27.00;83.20;;;;;;4909002;29;20511;-79
2021/06/04 11:29:26;;;;;;;8.17;6.20;;;26.90;82.80;;;;;;4898499;29;20409;-77
2021/06/04 11:31:58;;;;;;;10.63;6.70;;;26.90;83.30;;;;;;4898216;29;20440;-77
2021/06/04 11:34:48;;;;;;;14.07;7.30;;;26.90;84.20;;;;;;4898462;29;20421;-79
2021/06/04 11:37:18;;;;;;;11.57;6.40;;;26.90;84.00;;;;;;4898369;29;20428;-77
2021/06/04 11:39:47;;;;;;;7.53;6.90;;;26.80;83.90;;;;;;4898453;29;20559;-77
2021/06/04 11:42:39;;;;;;;8.97;6.30;;;26.80;85.60;;;;;;4898092;29;20475;-78
2021/06/04 11:45:07;;;;;;;10.90;6.63;;;26.80;84.60;;;;;;4898125;29;20425;-78
2021/06/04 11:47:37;;;;;;;8.50;6.47;;;26.80;84.30;;;;;;4898107;29;20413;-78
2021/06/04 11:50:10;;;;;;;11.30;6.37;;;26.80;84.60;;;;;;4898224;29;20999;-79
2021/06/04 11:52:44;;;;;;;12.83;6.90;;;26.90;84.80;;;;;;4897607;29;21035;-78
2021/06/04 11:55:26;;;;;;;5.80;5.50;;;26.90;84.80;;;;;;4897320;29;20456;-78
2021/06/04 11:58:02;;;;;;;11.10;6.70;;;26.90;85.40;;;;;;4898495;29;20421;-79
2021/06/04 12:00:37;;;;;;;6.13;5.47;;;27.00;86.00;;;;;;4898803;29;20438;-78
2021/06/04 12:03:09;;;;;;;7.13;6.00;;;27.10;86.20;;;;;;4898714;29;20488;-78
2021/06/04 12:05:49;;;;;;;8.20;6.50;;;27.10;85.80;;;;;;4917792;29;20475;-78
2021/06/04 12:08:20;;;;;;;8.27;6.10;;;27.20;85.40;;;;;;4916579;29;20412;-78
2021/06/04 12:10:49;;;;;;;7.83;6.30;;;27.30;86.10;;;;;;4916300;29;20962;-79
2021/06/04 12:13:49;;;;;;;6.93;5.73;;;27.40;86.70;;;;;;4914031;29;20879;-76
2021/06/04 12:19:06;;;;;;;10.03;6.70;;;27.60;84.10;;;;;;4927723;29;20553;-78
2021/06/04 12:21:38;;;;;;;6.67;6.00;;;27.70;84.90;;;;;;4908121;29;20995;-77
2021/06/04 12:24:27;;;;;;;11.37;6.20;;;27.70;85.20;;;;;;4910391;29;20465;-76
2021/06/04 12:26:59;;;;;;;7.90;5.90;;;27.60;83.80;;;;;;4903421;29;20441;-77
2021/06/04 12:29:28;;;;;;;7.87;5.47;;;27.60;83.10;;;;;;4913085;29;20409;-77
2021/06/04 12:32:13;;;;;;;6.10;5.60;;;27.60;83.70;;;;;;4911576;29;20809;-76
2021/06/04 12:34:38;;;;;;;8.80;5.70;;;27.60;83.20;;;;;;4905482;29;20437;-77
2021/06/04 12:37:19;;;;;;;5.60;5.20;;;27.60;83.40;;;;;;4898432;29;20409;-77
2021/06/04 12:39:58;;;;;;;12.77;5.83;;;27.60;83.60;;;;;;4908974;29;20208;-76
2021/06/04 12:42:27;;;;;;;12.60;5.80;;;27.60;83.80;;;;;;4896757;29;20463;-76
2021/06/04 12:45:07;;;;;;;7.10;5.73;;;27.70;83.60;;;;;;4906290;29;20844;-79
2021/06/04 12:47:52;;;;;;;6.13;5.33;;;27.70;84.30;;;;;;4921284;29;20438;-77
2021/06/04 12:50:20;;;;;;;5.40;5.10;;;27.70;85.40;;;;;;4911160;29;20431;-77
2021/06/04 12:52:48;;;;;;;7.97;5.20;;;27.80;83.50;;;;;;4916193;29;20426;-78
2021/06/04 12:55:19;;;;;;;5.30;5.00;;;27.90;83.70;;;;;;4916357;29;20424;-78
2021/06/04 12:57:45;;;;;;;5.27;4.70;;;28.00;87.30;;;;;;4914380;29;20423;-76
2021/06/04 13:00:24;;;;;;;7.70;4.80;;;28.20;85.10;;;;;;4917989;29;20797;-78
2021/06/04 13:02:55;;;;;;;6.60;5.53;;;28.40;85.20;;;;;;4939494;29;20199;-77
2021/06/04 13:05:25;;;;;;;5.70;5.10;;;28.70;85.70;;;;;;4918763;29;20768;-77
2021/06/04 13:07:53;;;;;;;10.70;5.30;;;29.10;85.00;;;;;;4909316;29;20432;-77
2021/06/04 13:10:25;;;;;;;7.80;4.93;;;29.30;80.80;;;;;;4903280;29;20439;-78
2021/06/04 13:13:17;;;;;;;6.40;4.67;;;29.50;80.70;;;;;;4903762;29;20523;-78
2021/06/04 13:15:43;;;;;;;6.30;4.00;;;29.70;80.40;;;;;;4876250;29;20545;-77
2021/06/04 13:18:15;;;;;;;5.90;3.80;;;29.80;80.10;;;;;;4909457;29;20468;-78
2021/06/04 13:20:45;;;;;;;5.60;4.60;;;30.10;80.10;;;;;;4915699;29;20493;-78
2021/06/04 13:23:18;;;;;;;4.30;3.70;;;30.20;79.90;;;;;;4915173;29;20538;-79
2021/06/04 13:25:45;;;;;;;3.43;3.10;;;30.20;77.70;;;;;;4915474;29;20468;-79
2021/06/04 13:28:17;;;;;;;4.50;3.87;;;30.40;78.90;;;;;;4900741;29;20431;-78
2021/06/04 13:31:11;;;;;;;4.20;3.53;;;30.60;76.20;;;;;;4903279;29;20450;-78
2021/06/04 13:33:42;;;;;;;3.77;3.43;;;30.70;75.80;;;;;;4898437;29;20435;-78
2021/06/04 13:36:10;;;;;;;3.73;3.60;;;30.80;76.70;;;;;;4929944;29;20432;-78
2021/06/04 13:38:39;;;;;;;10.03;4.00;;;30.90;74.80;;;;;;4914800;29;20935;-78
2021/06/04 13:41:10;;;;;;;4.87;3.73;;;31.00;76.60;;;;;;4900646;29;20444;-79
2021/06/04 13:43:44;;;;;;;9.00;3.70;;;31.10;76.60;;;;;;4899893;29;20520;-78
2021/06/04 13:46:15;;;;;;;13.60;3.73;;;31.20;76.80;;;;;;4917549;29;20515;-78
2021/06/04 13:48:58;;;;;;;11.10;4.60;;;31.30;75.90;;;;;;4904203;29;20832;-78
2021/06/04 13:51:56;;;;;;;5.20;3.80;;;31.40;75.60;;;;;;4936436;29;20796;-78
2021/06/04 13:54:36;;;;;;;5.47;4.40;;;31.50;76.30;;;;;;4936625;29;20411;-78
2021/06/04 13:57:28;;;;;;;4.10;3.90;;;31.50;75.90;;;;;;4917666;29;20860;-78
2021/06/04 14:00:24;;;;;;;5.20;4.00;;;31.50;76.30;;;;;;4917769;29;20424;-78
2021/06/04 14:03:13;;;;;;;5.40;4.40;;;31.50;75.20;;;;;;4918222;29;20945;-78
2021/06/04 14:05:39;;;;;;;8.33;4.57;;;31.20;76.90;;;;;;4900597;29;20512;-78
2021/06/04 14:08:22;;;;;;;6.70;4.80;;;31.10;79.40;;;;;;4902111;29;20425;-79
2021/06/04 14:10:58;;;;;;;7.10;4.77;;;31.00;79.10;;;;;;4899839;29;20432;-78
2021/06/04 14:13:51;;;;;;;9.20;4.50;;;30.90;79.80;;;;;;4899796;29;20496;-79
2021/06/04 14:16:33;;;;;;;7.63;4.57;;;30.90;80.40;;;;;;4899336;29;20951;-79
2021/06/04 14:18:58;;;;;;;11.50;5.50;;;30.80;80.60;;;;;;4934504;29;20557;-78
2021/06/04 14:21:24;;;;;;;10.63;5.33;;;30.60;81.10;;;;;;4904856;29;20461;-78
2021/06/04 14:24:02;;;;;;;5.67;5.33;;;30.60;83.20;;;;;;4899901;29;20213;-78
2021/06/04 14:26:57;;;;;;;9.10;4.60;;;30.50;82.80;;;;;;4900094;29;20452;-78
2021/06/04 14:29:27;;;;;;;6.70;5.70;;;30.50;82.30;;;;;;4900110;29;20445;-78
2021/06/04 14:32:06;;;;;;;7.90;5.50;;;30.40;82.10;;;;;;4918640;29;20519;-79
2021/06/04 14:34:40;;;;;;;5.90;5.27;;;30.20;81.60;;;;;;4918433;29;20415;-78
2021/06/04 14:37:13;;;;;;;7.57;5.30;;;29.90;82.00;;;;;;4918648;29;20839;-79
2021/06/04 14:39:43;;;;;;;12.30;5.77;;;29.70;82.30;;;;;;4935042;29;20777;-78
2021/06/04 14:42:13;;;;;;;7.00;5.73;;;29.50;83.20;;;;;;4913013;29;20531;-79
2021/06/04 14:44:39;;;;;;;5.47;5.17;;;29.40;82.30;;;;;;4935529;29;20420;-79
2021/06/04 14:47:34;;;;;;;6.90;5.40;;;29.30;82.90;;;;;;4918300;29;20486;-78
2021/06/04 14:50:02;;;;;;;7.27;5.70;;;29.20;83.40;;;;;;4918448;29;20523;-79
2021/06/04 14:52:27;;;;;;;8.50;6.17;;;29.20;83.80;;;;;;4933883;29;20973;-78
2021/06/04 14:54:54;;;;;;;6.43;5.33;;;29.20;85.70;;;;;;4918070;29;20523;-79
2021/06/04 14:57:21;;;;;;;7.93;6.10;;;29.30;85.00;;;;;;4902009;29;20184;-79